Flight Track Log - Related Links

Times and Time Zones

All times are in EDT time to prevent confusion due to time zone crossing. See the RPA3392 flight status page for this flight to view local times or setup timezone preferences in your user account.

Time Position Orientation Groundspeed Altitude Reporting Facility
EDT Latitude Longitude Course Direction KTS MPH feet Rate Location/Type
Fri 05:53:48 PM 44.9167 -93.2333 130° Southeast 175 201 2,600  Level Minneapolis TRACON
Fri 05:54:18 PM 44.9450 -93.2250 12° North 187 215 3,400 1,630 Climbing Minneapolis Center
Fri 05:55:00 PM 44.7432 -92.7166 111° Southeast  Level Estimated
Fri 05:55:20 PM 45.0039 -93.1797 29° Northeast 248 285 5,100  Level Minneapolis Center
Fri 05:56:00 PM 44.6964 -92.5487 113° Southeast  Level Estimated
Fri 05:56:22 PM 44.9850 -93.0778 105° East 289 333 8,000  Level Minneapolis Center
Fri 05:57:00 PM 44.6494 -92.3812 90° East  Level Estimated
Fri 05:57:24 PM 44.9367 -92.9803 125° Southeast 300 345 10,900  Level Minneapolis Center
Fri 05:58:00 PM 44.6022 -92.2139 117° Southeast  Level Estimated
Fri 05:58:26 PM 44.8842 -92.8711 124° Southeast 332 382 13,100  Level Minneapolis Center
Fri 05:59:00 PM 44.5606 -92.0672 130° Southeast  Level Estimated
Fri 05:59:28 PM 44.8244 -92.7622 128° Southeast 349 402 15,500  Level Minneapolis Center
Fri 06:00:30 PM 44.7517 -92.6606 135° Southeast 366 421 17,500 2,323 Climbing Minneapolis Center
Fri 06:01:32 PM 44.6619 -92.5350 135° Southeast 376 433 20,300 2,129 Climbing Minneapolis Center
Fri 06:02:34 PM 44.5867 -92.4269 134° Southeast 384 442 21,900 1,597 Climbing Minneapolis Center
Fri 06:03:36 PM 44.5067 -92.3147 135° Southeast 402 463 23,600 1,694 Climbing Minneapolis Center
Fri 06:04:38 PM 44.4258 -92.1989 134° Southeast 412 474 25,400 1,452 Climbing Minneapolis Center
Fri 06:05:40 PM 44.3428 -92.0833 135° Southeast 419 482 26,600 1,355 Climbing Minneapolis Center
Fri 06:06:42 PM 44.2567 -91.9633 135° Southeast 432 497 28,200 1,355 Climbing Minneapolis Center
Fri 06:07:44 PM 44.1717 -91.8450 135° Southeast 433 498 29,400 1,161 Climbing Minneapolis Center
Fri 06:08:46 PM 44.0675 -91.6994 135° Southeast 438 504 30,600 871 Climbing Minneapolis Center
Fri 06:09:48 PM 43.9778 -91.5808 136° Southeast 444 511 31,200 774 Climbing Minneapolis Center
Fri 06:10:50 PM 43.8875 -91.4544 135° Southeast 451 519 32,200 968 Climbing Minneapolis Center
Fri 06:11:52 PM 43.7981 -91.3281 134° Southeast 457 526 33,200 1,161 Climbing Minneapolis Center
Fri 06:12:54 PM 43.7089 -91.2078 136° Southeast 455 524 34,600 871 Climbing Minneapolis Center
Fri 06:13:56 PM 43.6208 -91.0892 136° Southeast 446 513 35,000 194 Climbing Minneapolis Center
Fri 06:14:58 PM 43.5161 -90.9469 135° Southeast 443 510 35,000  Level Minneapolis Center
Fri 06:16:00 PM 43.4275 -90.8269 135° Southeast 446 513 35,000  Level Minneapolis Center
Fri 06:17:02 PM 43.3386 -90.7086 136° Southeast 447 514 35,000  Level Minneapolis Center
Fri 06:18:04 PM 43.2500 -90.5900 136° Southeast 447 514 35,000  Level Minneapolis Center
Fri 06:18:34 PM 43.1969 -90.5225 137° Southeast 443 510 35,000  Level Chicago Center
Fri 06:19:36 PM 43.1114 -90.4094 136° Southeast 433 498 35,000  Level Chicago Center
Fri 06:20:38 PM 43.0247 -90.2936 136° Southeast 435 501 35,000  Level Chicago Center
Fri 06:21:40 PM 42.9375 -90.1792 136° Southeast 437 503 35,000  Level Chicago Center
Fri 06:22:42 PM 42.8503 -90.0656 136° Southeast 437 503 35,000  Level Chicago Center
Fri 06:23:44 PM 42.7444 -89.9289 136° Southeast 437 503 35,000  Level Chicago Center
Fri 06:24:46 PM 42.6556 -89.8133 136° Southeast 436 502 35,000  Level Chicago Center
Fri 06:25:48 PM 42.5669 -89.6992 136° Southeast 437 503 35,000  Level Chicago Center
Fri 06:26:50 PM 42.4789 -89.5867 137° Southeast 438 504 35,000  Level Chicago Center
Fri 06:27:52 PM 42.3914 -89.4731 136° Southeast 437 503 35,000  Level Chicago Center
Fri 06:28:54 PM 42.2875 -89.3436 137° Southeast 437 503 35,000  Level Chicago Center
Fri 06:29:56 PM 42.1992 -89.2314 137° Southeast 437 503 35,000  Level Chicago Center
Fri 06:30:59 PM 42.1122 -89.1206 137° Southeast 434 499 35,000  Level Chicago Center
Fri 06:32:01 PM 42.0225 -89.0069 137° Southeast 431 496 35,000  Level Chicago Center
Fri 06:33:03 PM 41.9328 -88.8961 137° Southeast 437 503 35,000  Level Chicago Center
Fri 06:34:05 PM 41.8442 -88.7853 137° Southeast 439 505 35,000  Level Chicago Center
Fri 06:35:07 PM 41.7389 -88.6539 137° Southeast 435 501 35,000  Level Chicago Center
Fri 06:36:09 PM 41.6511 -88.5453 137° Southeast 434 499 35,000  Level Chicago Center
Fri 06:37:11 PM 41.5619 -88.4350 137° Southeast 439 505 35,000  Level Chicago Center
Fri 06:38:13 PM 41.4736 -88.3272 138° Southeast 436 502 35,000  Level Chicago Center
Fri 06:39:15 PM 41.3875 -88.2217 137° Southeast 432 497 35,000  Level Chicago Center
Fri 06:40:17 PM 41.2836 -88.0956 138° Southeast 435 501 35,000  Level Chicago Center
Fri 06:41:19 PM 41.1953 -87.9881 138° Southeast 439 505 35,000  Level Chicago Center
Fri 06:42:21 PM 41.1050 -87.8786 138° Southeast 442 509 35,000  Level Chicago Center
Fri 06:43:24 PM 40.9978 -87.7486 138° Southeast 440 506 35,000  Level Chicago Center
Fri 06:44:26 PM 40.9081 -87.6397 137° Southeast 441 507 35,000  Level Chicago Center
Fri 06:45:28 PM 40.8172 -87.5322 138° Southeast 438 504 35,000  Level Chicago Center
Fri 06:46:30 PM 40.7269 -87.4250 138° Southeast 438 504 35,000  Level Chicago Center
Fri 06:47:32 PM 40.6375 -87.3225 139° Southeast 432 497 35,000  Level Chicago Center
Fri 06:48:34 PM 40.5497 -87.2194 138° Southeast 427 491 35,000  Level Chicago Center
Fri 06:49:36 PM 40.4453 -87.0972 138° Southeast 422 486 35,000  Level Chicago Center
Fri 06:50:38 PM 40.3564 -86.9911 138° Southeast 420 483 35,000  Level Chicago Center
Fri 06:51:40 PM 40.2689 -86.8903 139° Southeast 420 483 35,000  Level Chicago Center
Fri 06:52:42 PM 40.1806 -86.7894 139° Southeast 421 484 35,000  Level Chicago Center
Fri 06:53:45 PM 40.0928 -86.6861 138° Southeast 424 488 35,000  Level Chicago Center
Fri 06:54:47 PM 40.0056 -86.5864 139° Southeast 420 483 35,000  Level Chicago Center
Fri 06:55:49 PM 39.9000 -86.4647 138° Southeast 422 486 35,000  Level Chicago Center
Fri 06:56:51 PM 39.8139 -86.3653 138° Southeast 421 484 35,000  Level Chicago Center
Fri 06:57:53 PM 39.7431 -86.2369 126° Southeast 433 498 35,000  Level Chicago Center
Fri 06:58:55 PM 39.6656 -86.0978 126° Southeast 434 499 35,000  Level Chicago Center
Fri 06:59:57 PM 39.5950 -85.9706 126° Southeast 436 502 35,000  Level Chicago Center
Fri 07:00:59 PM 39.5253 -85.8456 126° Southeast 431 496 35,000  Level Chicago Center
Fri 07:02:01 PM 39.4550 -85.7194 126° Southeast 434 499 35,000  Level Chicago Center
Fri 07:03:03 PM 39.4017 -85.5772 116° Southeast 442 509 35,000  Level Chicago Center
Fri 07:04:17 PM 39.3567 -85.3961 108° East 443 510 35,000  Level Indianapolis Center
Fri 07:05:19 PM 39.3094 -85.2178 109° East 439 505 35,000  Level Indianapolis Center
Fri 07:06:20 PM 39.2714 -85.0686 108° East 439 505 35,000  Level Indianapolis Center
Fri 07:07:22 PM 39.2308 -84.9164 109° East 449 517 35,000  Level Indianapolis Center
Fri 07:08:24 PM 39.1906 -84.7642 109° East 456 525 35,000  Level Indianapolis Center
Fri 07:09:26 PM 39.1500 -84.6086 109° East 456 525 35,000  Level Indianapolis Center
Fri 07:10:28 PM 39.1011 -84.4253 109° East 459 528 35,000  Level Indianapolis Center
Fri 07:11:30 PM 39.0592 -84.2719 109° East 455 524 35,000  Level Indianapolis Center
Fri 07:12:32 PM 39.0181 -84.1183 109° East 453 521 35,000  Level Indianapolis Center
Fri 07:13:33 PM 38.9747 -83.9622 110° East 458 527 35,000  Level Indianapolis Center
Fri 07:14:35 PM 38.9328 -83.8069 109° East 461 531 35,000  Level Indianapolis Center
Fri 07:15:37 PM 38.8894 -83.6525 110° East 457 526 35,000  Level Indianapolis Center
Fri 07:16:39 PM 38.8472 -83.4994 109° East 453 521 35,000  Level Indianapolis Center
Fri 07:17:41 PM 38.7978 -83.3211 110° East 453 521 35,000  Level Indianapolis Center
Fri 07:18:42 PM 38.7544 -83.1672 110° East 457 526 35,000  Level Indianapolis Center
Fri 07:19:44 PM 38.7133 -83.0225 110° East 458 527 35,000  Level Indianapolis Center
Fri 07:20:46 PM 38.6700 -82.8694 110° East 458 527 35,000  Level Indianapolis Center
Fri 07:21:48 PM 38.6247 -82.7106 110° East 459 528 35,000  Level Indianapolis Center
Fri 07:22:50 PM 38.5728 -82.5308 110° East 460 529 35,000  Level Indianapolis Center
Fri 07:23:51 PM 38.5289 -82.3819 111° Southeast 456 525 35,000  Level Indianapolis Center
Fri 07:24:53 PM 38.4847 -82.2289 110° East 462 532 35,000  Level Indianapolis Center
Fri 07:25:55 PM 38.4400 -82.0769 111° Southeast 461 531 35,000  Level Indianapolis Center
Fri 07:26:57 PM 38.3956 -81.9269 111° Southeast 457 526 35,000  Level Indianapolis Center
Fri 07:27:58 PM 38.3558 -81.7794 109° East 447 514 35,000  Level Indianapolis Center
Fri 07:29:00 PM 38.3439 -81.5856 94° East 465 535 35,000  Level Indianapolis Center
Fri 07:30:02 PM 38.3378 -81.4222 93° East 466 536 35,000  Level Indianapolis Center
Fri 07:31:03 PM 38.3328 -81.2597 92° East 464 534 35,000  Level Indianapolis Center
Fri 07:32:05 PM 38.3264 -81.0972 93° East 464 534 35,000  Level Indianapolis Center
Fri 07:32:35 PM 38.3233 -81.0281 93° East 443 510 35,000  Level Washington Center
Fri 07:33:34 PM 38.3181 -80.8636 92° East 450 518 35,000  Level Washington Center
Fri 07:34:34 PM 38.3128 -80.6992 92° East 463 533 35,000  Level Washington Center
Fri 07:35:33 PM 38.3056 -80.5189 93° East 463 533 35,000  Level Washington Center
Fri 07:36:34 PM 38.3208 -80.3531 83° East 463 533 35,000  Level Washington Center
Fri 07:37:34 PM 38.3414 -80.1956 81° East 457 526 35,000  Level Washington Center
Fri 07:38:35 PM 38.3603 -80.0297 82° East 462 532 35,000  Level Washington Center
Fri 07:39:33 PM 38.3781 -79.8797 81° East 468 539 35,000  Level Washington Center
Fri 07:40:34 PM 38.3967 -79.7114 82° East 468 539 35,000 -446 Level Washington Center
Fri 07:41:34 PM 38.4147 -79.5453 82° East 474 545 34,100 -1,686 Descending Washington Center
Fri 07:42:35 PM 38.4347 -79.3767 81° East 474 545 31,600 -2,678 Descending Washington Center
Fri 07:43:35 PM 38.4531 -79.1894 83° East 479 551 28,700 -2,281 Descending Washington Center
Fri 07:44:36 PM 38.4767 -79.0261 79° East 479 551 27,000 -1,169 Descending Washington Center
Fri 07:45:33 PM 38.4975 -78.8758 80° East 473 544 26,400 -1,424 Descending Washington Center
Fri 07:46:34 PM 38.5225 -78.7206 78° East 462 532 24,200 -2,016 Descending Washington Center
Fri 07:47:35 PM 38.5450 -78.5700 79° East 448 516 22,300 -1,765 Descending Washington Center
Fri 07:48:33 PM 38.5672 -78.4275 79° East 424 488 20,700 -1,815 Descending Washington Center
Fri 07:49:34 PM 38.5914 -78.2850 78° East 414 476 18,700 -1,854 Descending Washington Center
Fri 07:50:36 PM 38.6297 -78.1536 69° East 401 461 16,900 -1,700 Descending Washington Center
Fri 07:51:34 PM 38.6700 -78.0247 68° East 390 449 15,300 -1,462 Descending Washington Center
Fri 07:52:35 PM 38.7075 -77.9089 67° East 372 428 14,000 -1,289 Descending Washington Center
Fri 07:53:35 PM 38.7492 -77.8011 64° Northeast 349 402 12,700 -1,339 Descending Washington Center
Fri 07:54:36 PM 38.8092 -77.7150 48° Northeast 331 381 11,300 -1,525 Descending Washington Center
Fri 07:55:33 PM 38.8756 -77.6208 48° Northeast 325 374 9,700 -1,475 Descending Washington Center
Fri 07:56:34 PM 38.9267 -77.5422 50° Northeast 320 368 8,400 -1,276 Descending Washington Center
Fri 07:57:40 PM 38.9667 -77.4167 68° East 281 323 7,000 -1,095 Descending Potomac TRACON
Fri 07:58:40 PM 39.0000 -77.3500 57° Northeast 244 281 6,100 -714 Descending Potomac TRACON
Fri 07:59:46 PM 39.0500 -77.2667 52° Northeast 225 259 5,500 -500 Descending Potomac TRACON
Fri 08:00:40 PM 39.0667 -77.2167 67° East 212 244 5,100 -700 Descending Potomac TRACON
Fri 08:01:46 PM 39.0333 -77.2000 159° South 156 180 4,100 -909 Descending Potomac TRACON
Fri 08:02:52 PM 39.0000 -77.1667 142° Southeast 166 191 3,100 -942 Descending Potomac TRACON
Fri 08:03:47 PM 38.9500 -77.1333 153° Southeast 165 190 2,200 -982 Descending Potomac TRACON

Login

Don't have an account? Register now (free) for customized features, flight alerts, and more!